sensor_id;sensor_type;location;lat;lon;timestamp;pressure;altitude;pressure_sealevel;temperature;humidity
55546;BME280;44768;50.298;127.520;2022-08-03T00:03:51;98959.94;;;37.33;51.76
55546;BME280;44768;50.298;127.520;2022-08-03T00:09:06;98969.28;;;37.05;52.90
55546;BME280;44768;50.298;127.520;2022-08-03T00:14:07;98965.56;;;37.08;53.43
55546;BME280;44768;50.298;127.520;2022-08-03T00:19:09;98970.06;;;36.92;52.39
55546;BME280;44768;50.298;127.520;2022-08-03T00:24:11;98970.41;;;36.27;54.04
55546;BME280;44768;50.298;127.520;2022-08-03T00:29:13;98957.88;;;35.87;54.25
55546;BME280;44768;50.298;127.520;2022-08-03T00:34:15;98971.16;;;35.70;55.27
55546;BME280;44768;50.298;127.520;2022-08-03T00:39:16;98967.94;;;35.55;55.30
55546;BME280;44768;50.298;127.520;2022-08-03T00:44:18;98974.25;;;35.43;57.88
55546;BME280;44768;50.298;127.520;2022-08-03T00:49:19;98980.84;;;35.98;57.55
55546;BME280;44768;50.298;127.520;2022-08-03T00:54:22;98947.09;;;36.14;56.17
55546;BME280;44768;50.298;127.520;2022-08-03T00:59:25;98968.84;;;36.26;56.93
55546;BME280;44768;50.298;127.520;2022-08-03T01:04:26;98979.03;;;35.75;57.57
55546;BME280;44768;50.298;127.520;2022-08-03T01:14:45;98981.34;;;34.79;59.83
55546;BME280;44768;50.298;127.520;2022-08-03T01:20:07;98983.34;;;34.42;58.43
55546;BME280;44768;50.298;127.520;2022-08-03T01:25:23;98984.09;;;34.23;61.36
55546;BME280;44768;50.298;127.520;2022-08-03T01:30:32;98968.28;;;34.13;61.32
55546;BME280;44768;50.298;127.520;2022-08-03T01:35:40;98979.91;;;33.91;60.29
55546;BME280;44768;50.298;127.520;2022-08-03T01:40:44;98963.97;;;33.42;61.34
55546;BME280;44768;50.298;127.520;2022-08-03T01:45:47;98987.00;;;32.99;62.83
55546;BME280;44768;50.298;127.520;2022-08-03T01:50:50;98972.09;;;33.09;63.76
55546;BME280;44768;50.298;127.520;2022-08-03T01:55:54;98983.69;;;33.08;63.08
55546;BME280;44768;50.298;127.520;2022-08-03T02:00:56;98975.22;;;32.88;63.73
55546;BME280;44768;50.298;127.520;2022-08-03T02:06:01;98973.63;;;32.87;63.78
55546;BME280;44768;50.298;127.520;2022-08-03T02:11:04;98973.91;;;33.19;62.40
55546;BME280;44768;50.298;127.520;2022-08-03T02:16:06;98975.34;;;33.04;63.46
55546;BME280;44768;50.298;127.520;2022-08-03T02:21:09;98978.25;;;32.97;62.97
55546;BME280;44768;50.298;127.520;2022-08-03T02:26:14;98975.13;;;33.18;63.73
55546;BME280;44768;50.298;127.520;2022-08-03T02:31:22;98961.78;;;33.29;62.71
55546;BME280;44768;50.298;127.520;2022-08-03T02:36:29;98966.88;;;33.11;62.00
55546;BME280;44768;50.298;127.520;2022-08-03T02:41:35;98959.91;;;32.96;63.15
55546;BME280;44768;50.298;127.520;2022-08-03T02:46:43;98967.28;;;33.37;65.11
55546;BME280;44768;50.298;127.520;2022-08-03T02:51:46;98965.72;;;33.79;62.08
55546;BME280;44768;50.298;127.520;2022-08-03T02:56:51;98954.34;;;33.89;62.41
55546;BME280;44768;50.298;127.520;2022-08-03T03:01:54;98958.09;;;33.59;60.99
55546;BME280;44768;50.298;127.520;2022-08-03T03:06:57;98975.53;;;34.10;63.46
55546;BME280;44768;50.298;127.520;2022-08-03T03:12:01;98976.03;;;34.05;62.95
55546;BME280;44768;50.298;127.520;2022-08-03T03:22:35;98933.63;;;34.27;60.43
55546;BME280;44768;50.298;127.520;2022-08-03T03:27:38;98963.38;;;34.40;59.54
55546;BME280;44768;50.298;127.520;2022-08-03T03:32:41;98954.22;;;34.56;61.84
55546;BME280;44768;50.298;127.520;2022-08-03T03:37:42;98950.47;;;34.99;60.20
55546;BME280;44768;50.298;127.520;2022-08-03T03:42:44;98947.94;;;35.37;59.64
55546;BME280;44768;50.298;127.520;2022-08-03T03:47:46;98939.00;;;35.26;59.15
55546;BME280;44768;50.298;127.520;2022-08-03T03:52:47;98929.28;;;34.78;58.39
55546;BME280;44768;50.298;127.520;2022-08-03T03:57:49;98938.72;;;34.12;60.65
55546;BME280;44768;50.298;127.520;2022-08-03T04:02:51;98935.97;;;34.28;60.15
55546;BME280;44768;50.298;127.520;2022-08-03T04:08:00;98930.66;;;34.34;60.39
55546;BME280;44768;50.298;127.520;2022-08-03T04:13:29;98921.06;;;34.15;61.16
55546;BME280;44768;50.298;127.520;2022-08-03T04:18:33;98923.31;;;33.80;63.03
55546;BME280;44768;50.298;127.520;2022-08-03T04:23:43;98908.91;;;33.39;62.73
55546;BME280;44768;50.298;127.520;2022-08-03T04:28:46;98896.53;;;33.13;62.82
55546;BME280;44768;50.298;127.520;2022-08-03T04:33:51;98903.88;;;33.03;62.28
55546;BME280;44768;50.298;127.520;2022-08-03T04:39:07;98895.75;;;33.12;63.27
55546;BME280;44768;50.298;127.520;2022-08-03T04:44:12;98894.78;;;33.22;62.70
55546;BME280;44768;50.298;127.520;2022-08-03T04:49:15;98887.22;;;32.96;58.31
55546;BME280;44768;50.298;127.520;2022-08-03T04:54:16;98883.41;;;32.83;64.63
55546;BME280;44768;50.298;127.520;2022-08-03T04:59:18;98890.63;;;32.84;62.94
55546;BME280;44768;50.298;127.520;2022-08-03T05:04:19;98877.88;;;32.79;63.22
55546;BME280;44768;50.298;127.520;2022-08-03T05:09:21;98886.63;;;32.85;66.46
55546;BME280;44768;50.298;127.520;2022-08-03T05:14:23;98869.00;;;32.88;61.68
55546;BME280;44768;50.298;127.520;2022-08-03T05:19:25;98868.09;;;32.94;62.79
55546;BME280;44768;50.298;127.520;2022-08-03T05:24:27;98868.66;;;33.09;65.17
55546;BME280;44768;50.298;127.520;2022-08-03T05:29:31;98873.38;;;33.12;65.30
55546;BME280;44768;50.298;127.520;2022-08-03T05:34:34;98866.31;;;33.04;66.40
55546;BME280;44768;50.298;127.520;2022-08-03T05:39:35;98867.91;;;33.52;65.93
55546;BME280;44768;50.298;127.520;2022-08-03T05:44:38;98852.38;;;33.71;61.31
55546;BME280;44768;50.298;127.520;2022-08-03T05:49:39;98865.91;;;34.12;63.50
55546;BME280;44768;50.298;127.520;2022-08-03T05:54:41;98839.06;;;34.50;53.99
55546;BME280;44768;50.298;127.520;2022-08-03T05:59:42;98832.22;;;34.35;60.42
55546;BME280;44768;50.298;127.520;2022-08-03T06:04:44;98854.75;;;34.28;60.92
55546;BME280;44768;50.298;127.520;2022-08-03T06:09:47;98855.03;;;34.34;61.08
55546;BME280;44768;50.298;127.520;2022-08-03T06:14:49;98846.41;;;34.44;58.31
55546;BME280;44768;50.298;127.520;2022-08-03T06:19:51;98850.88;;;34.42;57.44
55546;BME280;44768;50.298;127.520;2022-08-03T06:24:53;98852.44;;;34.07;55.80
55546;BME280;44768;50.298;127.520;2022-08-03T06:29:55;98857.72;;;33.81;62.32
55546;BME280;44768;50.298;127.520;2022-08-03T06:34:58;98866.91;;;33.62;60.24
55546;BME280;44768;50.298;127.520;2022-08-03T06:40:00;98850.88;;;33.19;55.65
55546;BME280;44768;50.298;127.520;2022-08-03T06:45:01;98870.66;;;32.82;62.40
55546;BME280;44768;50.298;127.520;2022-08-03T06:50:05;98864.66;;;32.56;62.46
55546;BME280;44768;50.298;127.520;2022-08-03T06:55:07;98877.13;;;32.52;65.00
55546;BME280;44768;50.298;127.520;2022-08-03T07:00:09;98866.72;;;32.52;60.00
55546;BME280;44768;50.298;127.520;2022-08-03T07:05:11;98887.59;;;32.71;62.00
55546;BME280;44768;50.298;127.520;2022-08-03T07:10:13;98865.50;;;33.07;61.25
55546;BME280;44768;50.298;127.520;2022-08-03T07:15:15;98840.56;;;33.16;60.90
55546;BME280;44768;50.298;127.520;2022-08-03T07:20:18;98824.78;;;33.06;61.26
55546;BME280;44768;50.298;127.520;2022-08-03T07:25:20;98847.06;;;33.10;61.21
55546;BME280;44768;50.298;127.520;2022-08-03T07:30:21;98826.47;;;33.00;60.97
55546;BME280;44768;50.298;127.520;2022-08-03T07:35:24;98849.38;;;32.91;62.53
55546;BME280;44768;50.298;127.520;2022-08-03T07:40:26;98854.38;;;32.77;61.22
55546;BME280;44768;50.298;127.520;2022-08-03T07:45:29;98848.31;;;32.82;60.90
55546;BME280;44768;50.298;127.520;2022-08-03T07:50:31;98830.09;;;32.73;61.19
55546;BME280;44768;50.298;127.520;2022-08-03T07:55:33;98843.06;;;32.87;60.03
55546;BME280;44768;50.298;127.520;2022-08-03T08:00:35;98838.69;;;32.83;59.92
55546;BME280;44768;50.298;127.520;2022-08-03T08:05:36;98839.81;;;32.65;60.01
55546;BME280;44768;50.298;127.520;2022-08-03T08:10:38;98832.19;;;32.42;59.78
55546;BME280;44768;50.298;127.520;2022-08-03T08:15:40;98838.19;;;32.41;58.85
55546;BME280;44768;50.298;127.520;2022-08-03T08:20:41;98848.97;;;32.39;58.91
55546;BME280;44768;50.298;127.520;2022-08-03T08:25:43;98855.31;;;32.43;59.14
55546;BME280;44768;50.298;127.520;2022-08-03T08:30:45;98849.81;;;32.36;58.94
55546;BME280;44768;50.298;127.520;2022-08-03T08:35:47;98848.97;;;32.39;56.69
55546;BME280;44768;50.298;127.520;2022-08-03T08:40:49;98822.63;;;32.40;57.30
55546;BME280;44768;50.298;127.520;2022-08-03T08:45:53;98835.66;;;32.73;55.36
55546;BME280;44768;50.298;127.520;2022-08-03T08:50:56;98841.41;;;33.13;53.57
55546;BME280;44768;50.298;127.520;2022-08-03T08:55:59;98840.81;;;33.49;54.55
55546;BME280;44768;50.298;127.520;2022-08-03T09:01:02;98850.56;;;33.80;53.30
55546;BME280;44768;50.298;127.520;2022-08-03T09:06:04;98839.38;;;33.80;53.56
55546;BME280;44768;50.298;127.520;2022-08-03T09:11:06;98830.53;;;33.42;53.43
55546;BME280;44768;50.298;127.520;2022-08-03T09:16:20;98826.81;;;33.25;53.45
55546;BME280;44768;50.298;127.520;2022-08-03T09:21:25;98825.81;;;32.92;54.34
55546;BME280;44768;50.298;127.520;2022-08-03T09:26:30;98833.38;;;32.68;54.05
55546;BME280;44768;50.298;127.520;2022-08-03T09:31:33;98836.50;;;32.47;54.18
55546;BME280;44768;50.298;127.520;2022-08-03T09:36:44;98830.72;;;32.31;54.73
55546;BME280;44768;50.298;127.520;2022-08-03T09:41:47;98865.34;;;32.37;54.37
55546;BME280;44768;50.298;127.520;2022-08-03T09:46:50;98866.63;;;32.29;53.78
55546;BME280;44768;50.298;127.520;2022-08-03T09:51:53;98853.16;;;32.24;53.87
55546;BME280;44768;50.298;127.520;2022-08-03T09:56:55;98854.88;;;32.14;53.54
55546;BME280;44768;50.298;127.520;2022-08-03T10:01:58;98858.03;;;32.16;53.45
55546;BME280;44768;50.298;127.520;2022-08-03T10:07:06;98862.19;;;32.04;53.61
55546;BME280;44768;50.298;127.520;2022-08-03T10:12:10;98859.88;;;31.99;53.69
55546;BME280;44768;50.298;127.520;2022-08-03T10:17:13;98861.28;;;31.80;54.08
55546;BME280;44768;50.298;127.520;2022-08-03T10:22:23;98864.53;;;31.72;54.30
55546;BME280;44768;50.298;127.520;2022-08-03T10:27:30;98863.91;;;31.57;54.80
55546;BME280;44768;50.298;127.520;2022-08-03T10:32:51;98872.47;;;31.39;54.99
55546;BME280;44768;50.298;127.520;2022-08-03T10:38:06;98873.78;;;31.24;55.38
55546;BME280;44768;50.298;127.520;2022-08-03T10:43:11;98877.53;;;31.03;55.86
55546;BME280;44768;50.298;127.520;2022-08-03T10:48:19;98881.28;;;30.82;56.10
55546;BME280;44768;50.298;127.520;2022-08-03T10:53:38;98896.09;;;30.72;56.54
55546;BME280;44768;50.298;127.520;2022-08-03T10:58:51;98904.88;;;30.60;56.51
55546;BME280;44768;50.298;127.520;2022-08-03T11:09:27;98899.44;;;30.39;56.96
55546;BME280;44768;50.298;127.520;2022-08-03T11:14:47;98909.06;;;30.27;57.41
55546;BME280;44768;50.298;127.520;2022-08-03T11:19:52;98885.69;;;29.96;57.72
55546;BME280;44768;50.298;127.520;2022-08-03T11:30:03;98905.59;;;29.87;58.14
55546;BME280;44768;50.298;127.520;2022-08-03T11:40:44;98909.25;;;29.66;58.41
55546;BME280;44768;50.298;127.520;2022-08-03T11:45:59;98906.88;;;29.61;58.09
55546;BME280;44768;50.298;127.520;2022-08-03T11:51:05;98929.13;;;29.61;58.28
55546;BME280;44768;50.298;127.520;2022-08-03T11:56:07;98923.13;;;29.52;58.26
55546;BME280;44768;50.298;127.520;2022-08-03T12:01:09;98934.66;;;29.51;58.03
55546;BME280;44768;50.298;127.520;2022-08-03T12:06:14;98935.47;;;29.30;57.99
55546;BME280;44768;50.298;127.520;2022-08-03T12:11:16;98926.72;;;29.14;58.83
55546;BME280;44768;50.298;127.520;2022-08-03T12:16:22;98944.59;;;29.05;59.71
55546;BME280;44768;50.298;127.520;2022-08-03T12:21:24;98941.78;;;28.95;60.21
55546;BME280;44768;50.298;127.520;2022-08-03T12:26:27;98949.69;;;28.89;60.37
55546;BME280;44768;50.298;127.520;2022-08-03T12:31:29;98971.13;;;28.92;60.72
55546;BME280;44768;50.298;127.520;2022-08-03T12:36:33;98960.81;;;28.78;61.28
55546;BME280;44768;50.298;127.520;2022-08-03T12:41:38;98956.00;;;28.58;61.51
55546;BME280;44768;50.298;127.520;2022-08-03T12:46:41;98961.94;;;28.53;61.85
55546;BME280;44768;50.298;127.520;2022-08-03T13:01:58;98980.44;;;28.31;62.12
55546;BME280;44768;50.298;127.520;2022-08-03T13:07:05;98979.19;;;28.21;62.61
55546;BME280;44768;50.298;127.520;2022-08-03T13:17:14;98967.59;;;27.98;62.57
55546;BME280;44768;50.298;127.520;2022-08-03T13:22:21;98977.06;;;27.89;63.09
55546;BME280;44768;50.298;127.520;2022-08-03T13:27:24;98979.06;;;27.93;62.95
55546;BME280;44768;50.298;127.520;2022-08-03T13:32:26;98984.19;;;27.90;63.23
55546;BME280;44768;50.298;127.520;2022-08-03T13:37:28;98991.16;;;27.67;63.69
55546;BME280;44768;50.298;127.520;2022-08-03T13:42:34;99001.38;;;27.59;63.85
55546;BME280;44768;50.298;127.520;2022-08-03T13:47:36;98999.00;;;27.61;63.84
55546;BME280;44768;50.298;127.520;2022-08-03T13:52:37;98997.47;;;27.64;63.64
55546;BME280;44768;50.298;127.520;2022-08-03T13:57:39;98998.13;;;27.50;64.28
55546;BME280;44768;50.298;127.520;2022-08-03T14:02:40;99002.03;;;27.42;64.39
55546;BME280;44768;50.298;127.520;2022-08-03T14:07:42;98996.00;;;27.33;64.33
55546;BME280;44768;50.298;127.520;2022-08-03T14:12:44;98980.56;;;27.32;64.24
55546;BME280;44768;50.298;127.520;2022-08-03T14:17:46;98981.38;;;27.36;64.60
55546;BME280;44768;50.298;127.520;2022-08-03T14:22:48;98974.25;;;27.35;64.51
55546;BME280;44768;50.298;127.520;2022-08-03T14:27:50;98967.91;;;27.30;64.51
55546;BME280;44768;50.298;127.520;2022-08-03T14:32:51;98959.09;;;27.21;64.38
55546;BME280;44768;50.298;127.520;2022-08-03T14:37:53;98958.59;;;27.12;64.54
55546;BME280;44768;50.298;127.520;2022-08-03T14:42:55;98966.06;;;27.05;65.19
55546;BME280;44768;50.298;127.520;2022-08-03T14:47:57;98970.72;;;26.97;64.92
55546;BME280;44768;50.298;127.520;2022-08-03T14:53:01;98956.03;;;26.93;64.99
55546;BME280;44768;50.298;127.520;2022-08-03T14:58:02;98946.22;;;26.99;64.81
55546;BME280;44768;50.298;127.520;2022-08-03T15:03:06;98948.88;;;26.88;65.28
55546;BME280;44768;50.298;127.520;2022-08-03T15:08:08;98942.00;;;26.72;65.45
55546;BME280;44768;50.298;127.520;2022-08-03T15:13:09;98939.47;;;26.59;65.68
55546;BME280;44768;50.298;127.520;2022-08-03T15:18:11;98943.31;;;26.51;65.63
55546;BME280;44768;50.298;127.520;2022-08-03T15:23:14;98935.44;;;26.53;65.71
55546;BME280;44768;50.298;127.520;2022-08-03T15:28:15;98927.50;;;26.52;65.61
55546;BME280;44768;50.298;127.520;2022-08-03T15:33:17;98935.72;;;26.41;65.57
55546;BME280;44768;50.298;127.520;2022-08-03T15:38:19;98942.00;;;26.38;65.49
55546;BME280;44768;50.298;127.520;2022-08-03T15:43:25;98924.47;;;26.27;65.52
55546;BME280;44768;50.298;127.520;2022-08-03T15:48:26;98954.25;;;26.37;65.63
55546;BME280;44768;50.298;127.520;2022-08-03T15:53:29;98950.13;;;26.24;65.80
55546;BME280;44768;50.298;127.520;2022-08-03T15:58:30;98949.19;;;26.13;66.43
55546;BME280;44768;50.298;127.520;2022-08-03T16:03:32;98947.16;;;26.09;66.19
55546;BME280;44768;50.298;127.520;2022-08-03T16:08:37;98943.53;;;26.02;66.37
55546;BME280;44768;50.298;127.520;2022-08-03T16:13:38;98934.13;;;26.10;66.64
55546;BME280;44768;50.298;127.520;2022-08-03T16:18:40;98928.41;;;25.96;66.29
55546;BME280;44768;50.298;127.520;2022-08-03T16:23:43;98937.91;;;25.98;66.53
55546;BME280;44768;50.298;127.520;2022-08-03T16:28:45;98943.41;;;25.95;66.15
55546;BME280;44768;50.298;127.520;2022-08-03T16:33:47;98934.53;;;25.82;66.69
55546;BME280;44768;50.298;127.520;2022-08-03T16:38:48;98942.31;;;25.73;66.83
55546;BME280;44768;50.298;127.520;2022-08-03T16:43:51;98934.66;;;25.63;66.90
55546;BME280;44768;50.298;127.520;2022-08-03T16:48:53;98942.47;;;25.57;67.45
55546;BME280;44768;50.298;127.520;2022-08-03T16:53:55;98941.66;;;25.57;67.24
55546;BME280;44768;50.298;127.520;2022-08-03T16:58:57;98924.88;;;25.42;67.09
55546;BME280;44768;50.298;127.520;2022-08-03T17:04:00;98926.66;;;25.31;67.45
55546;BME280;44768;50.298;127.520;2022-08-03T17:09:06;98916.53;;;25.39;67.29
55546;BME280;44768;50.298;127.520;2022-08-03T17:14:09;98919.16;;;25.55;66.99
55546;BME280;44768;50.298;127.520;2022-08-03T17:19:11;98929.22;;;25.43;67.01
55546;BME280;44768;50.298;127.520;2022-08-03T17:24:22;98923.59;;;25.36;67.20
55546;BME280;44768;50.298;127.520;2022-08-03T17:29:27;98926.03;;;25.41;67.35
55546;BME280;44768;50.298;127.520;2022-08-03T17:34:29;98934.75;;;25.43;67.15
55546;BME280;44768;50.298;127.520;2022-08-03T17:39:31;98931.56;;;25.41;67.17
55546;BME280;44768;50.298;127.520;2022-08-03T17:44:36;98937.03;;;25.38;66.86
55546;BME280;44768;50.298;127.520;2022-08-03T17:49:38;98938.31;;;25.21;67.14
55546;BME280;44768;50.298;127.520;2022-08-03T18:00:15;98944.16;;;25.16;67.34
55546;BME280;44768;50.298;127.520;2022-08-03T18:05:35;98958.81;;;25.20;66.86
55546;BME280;44768;50.298;127.520;2022-08-03T18:10:38;98955.63;;;25.18;67.00
55546;BME280;44768;50.298;127.520;2022-08-03T18:20:50;98953.00;;;25.25;67.16
55546;BME280;44768;50.298;127.520;2022-08-03T18:25:54;98941.28;;;25.09;67.26
55546;BME280;44768;50.298;127.520;2022-08-03T18:30:56;98930.09;;;25.02;67.73
55546;BME280;44768;50.298;127.520;2022-08-03T18:35:59;98936.59;;;25.13;67.33
55546;BME280;44768;50.298;127.520;2022-08-03T18:41:01;98940.66;;;25.19;67.56
55546;BME280;44768;50.298;127.520;2022-08-03T18:46:05;98940.22;;;25.17;67.39
55546;BME280;44768;50.298;127.520;2022-08-03T18:51:22;98931.41;;;25.08;67.54
55546;BME280;44768;50.298;127.520;2022-08-03T19:01:45;98934.22;;;24.88;67.76
55546;BME280;44768;50.298;127.520;2022-08-03T19:06:48;98942.50;;;24.88;67.65
55546;BME280;44768;50.298;127.520;2022-08-03T19:11:56;98942.81;;;24.83;67.67
55546;BME280;44768;50.298;127.520;2022-08-03T19:17:05;98950.88;;;24.73;67.79
55546;BME280;44768;50.298;127.520;2022-08-03T19:22:08;98950.16;;;24.76;67.48
55546;BME280;44768;50.298;127.520;2022-08-03T19:27:11;98939.16;;;24.79;67.58
55546;BME280;44768;50.298;127.520;2022-08-03T19:32:15;98953.84;;;24.83;67.43
55546;BME280;44768;50.298;127.520;2022-08-03T19:37:18;98950.28;;;24.83;67.44
55546;BME280;44768;50.298;127.520;2022-08-03T19:42:30;98956.63;;;24.83;66.84
55546;BME280;44768;50.298;127.520;2022-08-03T19:47:38;98960.53;;;24.82;67.15
55546;BME280;44768;50.298;127.520;2022-08-03T19:52:46;98962.56;;;24.66;66.88
55546;BME280;44768;50.298;127.520;2022-08-03T19:57:52;98957.38;;;24.42;67.38
55546;BME280;44768;50.298;127.520;2022-08-03T20:02:55;98962.16;;;24.45;67.64
55546;BME280;44768;50.298;127.520;2022-08-03T20:08:03;98960.97;;;24.65;67.38
55546;BME280;44768;50.298;127.520;2022-08-03T20:13:05;98965.13;;;24.75;67.05
55546;BME280;44768;50.298;127.520;2022-08-03T20:18:17;98933.59;;;24.76;66.43
55546;BME280;44768;50.298;127.520;2022-08-03T20:23:23;98969.47;;;24.99;66.20
55546;BME280;44768;50.298;127.520;2022-08-03T20:28:32;98973.03;;;24.99;66.02
55546;BME280;44768;50.298;127.520;2022-08-03T20:33:35;98975.06;;;25.02;65.70
55546;BME280;44768;50.298;127.520;2022-08-03T20:38:37;98968.84;;;25.05;65.83
55546;BME280;44768;50.298;127.520;2022-08-03T20:43:40;98970.66;;;25.20;65.21
55546;BME280;44768;50.298;127.520;2022-08-03T20:48:43;98966.34;;;25.46;65.34
55546;BME280;44768;50.298;127.520;2022-08-03T20:53:46;98959.69;;;25.73;64.59
55546;BME280;44768;50.298;127.520;2022-08-03T20:58:48;98964.94;;;25.82;64.47
55546;BME280;44768;50.298;127.520;2022-08-03T21:03:50;98961.00;;;26.09;63.74
55546;BME280;44768;50.298;127.520;2022-08-03T21:08:57;98968.34;;;26.28;63.34
55546;BME280;44768;50.298;127.520;2022-08-03T21:14:03;98967.25;;;26.66;62.48
55546;BME280;44768;50.298;127.520;2022-08-03T21:19:09;98963.25;;;27.01;61.79
55546;BME280;44768;50.298;127.520;2022-08-03T21:24:12;98962.78;;;27.36;61.17
55546;BME280;44768;50.298;127.520;2022-08-03T21:29:14;98968.88;;;27.56;60.47
55546;BME280;44768;50.298;127.520;2022-08-03T21:34:16;98962.66;;;27.73;60.39
55546;BME280;44768;50.298;127.520;2022-08-03T21:39:18;98977.53;;;28.06;59.94
55546;BME280;44768;50.298;127.520;2022-08-03T21:44:20;98987.22;;;28.40;58.84
55546;BME280;44768;50.298;127.520;2022-08-03T21:49:23;98981.47;;;28.95;58.16
55546;BME280;44768;50.298;127.520;2022-08-03T21:54:36;98983.13;;;29.67;56.49
55546;BME280;44768;50.298;127.520;2022-08-03T21:59:41;98992.56;;;30.16;55.38
55546;BME280;44768;50.298;127.520;2022-08-03T22:04:46;98997.16;;;30.69;54.66
55546;BME280;44768;50.298;127.520;2022-08-03T22:09:48;98978.72;;;31.93;52.59
55546;BME280;44768;50.298;127.520;2022-08-03T22:14:53;98969.50;;;32.34;51.11
55546;BME280;44768;50.298;127.520;2022-08-03T22:19:55;98975.59;;;32.56;50.79
55546;BME280;44768;50.298;127.520;2022-08-03T22:25:02;98982.31;;;32.28;50.97
55546;BME280;44768;50.298;127.520;2022-08-03T22:30:13;98978.75;;;31.90;51.99
55546;BME280;44768;50.298;127.520;2022-08-03T22:35:17;98957.50;;;32.37;51.55
55546;BME280;44768;50.298;127.520;2022-08-03T22:40:20;98967.06;;;35.42;45.57
55546;BME280;44768;50.298;127.520;2022-08-03T22:45:22;98966.50;;;37.99;39.89
55546;BME280;44768;50.298;127.520;2022-08-03T22:50:26;98979.09;;;39.53;37.72
55546;BME280;44768;50.298;127.520;2022-08-03T22:55:29;98965.41;;;40.62;35.99
55546;BME280;44768;50.298;127.520;2022-08-03T23:00:31;98949.06;;;41.08;34.98
55546;BME280;44768;50.298;127.520;2022-08-03T23:05:34;98965.63;;;41.57;34.30
55546;BME280;44768;50.298;127.520;2022-08-03T23:10:37;98958.91;;;41.69;34.02
55546;BME280;44768;50.298;127.520;2022-08-03T23:15:39;98956.19;;;41.99;33.99
55546;BME280;44768;50.298;127.520;2022-08-03T23:20:41;98955.03;;;42.20;32.98
55546;BME280;44768;50.298;127.520;2022-08-03T23:25:44;98934.41;;;42.05;33.28
55546;BME280;44768;50.298;127.520;2022-08-03T23:30:48;98926.19;;;41.45;34.25
55546;BME280;44768;50.298;127.520;2022-08-03T23:35:50;98917.28;;;40.80;35.06
55546;BME280;44768;50.298;127.520;2022-08-03T23:41:02;98922.06;;;40.56;35.81
55546;BME280;44768;50.298;127.520;2022-08-03T23:46:06;98919.03;;;39.99;36.64
55546;BME280;44768;50.298;127.520;2022-08-03T23:51:16;98920.91;;;39.56;37.24
